createdAt,value
2019-02-27T00:02:00.121Z,25.50
2019-02-27T00:04:34.876Z,25.33
2019-02-27T00:07:04.106Z,25.53
2019-02-27T00:09:35.352Z,24.30
2019-02-27T00:12:06.675Z,23.63
2019-02-27T00:14:37.842Z,25.13
2019-02-27T00:17:08.965Z,23.67
2019-02-27T00:19:40.222Z,23.93
2019-02-27T00:22:11.434Z,24.90
2019-02-27T00:24:42.619Z,24.20
2019-02-27T00:27:14.793Z,24.10
2019-02-27T00:29:46.406Z,23.50
2019-02-27T00:32:18.672Z,23.40
2019-02-27T00:34:50.348Z,22.70
2019-02-27T00:37:21.506Z,22.87
2019-02-27T00:39:52.655Z,21.97
2019-02-27T00:42:33.104Z,20.87
2019-02-27T00:44:56.768Z,21.07
2019-02-27T00:47:27.926Z,20.27
2019-02-27T00:49:59.090Z,21.93
2019-02-27T00:52:30.207Z,21.17
2019-02-27T00:55:04.236Z,21.73
2019-02-27T00:57:34.147Z,20.93
2019-02-27T01:00:07.202Z,21.77
2019-02-27T01:02:38.257Z,21.37
2019-02-27T01:05:09.844Z,22.00
2019-02-27T01:07:41.152Z,21.87
2019-02-27T01:10:12.985Z,23.27
2019-02-27T01:12:44.116Z,22.00
2019-02-27T01:15:15.953Z,20.97
2019-02-27T01:17:47.074Z,22.47
2019-02-27T01:20:18.351Z,21.03
2019-02-27T01:22:49.426Z,21.10
2019-02-27T01:25:22.891Z,19.93
2019-02-27T01:27:53.463Z,21.27
2019-02-27T01:30:24.934Z,21.27
2019-02-27T01:32:56.171Z,21.83
2019-02-27T01:35:27.245Z,20.93
2019-02-27T01:37:58.395Z,21.17
2019-02-27T01:40:29.618Z,21.13
2019-02-27T01:43:05.244Z,21.47
2019-02-27T01:45:33.630Z,20.87
2019-02-27T01:48:08.988Z,21.67
2019-02-27T01:50:39.260Z,21.47
2019-02-27T01:53:11.347Z,22.53
2019-02-27T01:55:42.544Z,20.60
2019-02-27T01:58:13.831Z,22.37
2019-02-27T02:00:45.383Z,22.80
2019-02-27T02:03:16.538Z,21.37
2019-02-27T02:05:47.910Z,22.53
2019-02-27T02:08:19.248Z,22.33
2019-02-27T02:10:51.502Z,22.93
2019-02-27T02:13:51.577Z,21.70
2019-02-27T02:17:16.531Z,21.47
2019-02-27T02:20:37.881Z,20.33
2019-02-27T02:24:04.187Z,20.63
2019-02-27T02:27:01.647Z,21.67
2019-02-27T02:30:46.150Z,22.63
2019-02-27T02:34:16.996Z,20.70
2019-02-27T02:37:15.580Z,22.80
2019-02-27T02:41:00.416Z,22.63
2019-02-27T02:44:31.983Z,22.40
2019-02-27T02:48:17.982Z,22.30
2019-02-27T02:51:50.253Z,21.27
2019-02-27T02:55:28.594Z,23.23
2019-02-27T02:58:57.463Z,22.03
2019-02-27T03:01:49.399Z,22.40
2019-02-27T03:05:12.161Z,22.63
2019-02-27T03:08:33.254Z,22.60
2019-02-27T03:12:08.926Z,22.00
2019-02-27T03:15:28.392Z,22.80
2019-02-27T03:19:16.360Z,22.10
2019-02-27T03:22:47.033Z,22.83
2019-02-27T03:26:08.405Z,22.83
2019-02-27T03:29:25.380Z,23.83
2019-02-27T03:32:07.834Z,25.20
2019-02-27T03:35:38.062Z,24.23
2019-02-27T03:39:00.342Z,24.50
2019-02-27T03:42:14.080Z,25.67
2019-02-27T03:45:40.770Z,23.30
2019-02-27T03:48:47.410Z,24.50
2019-02-27T03:52:03.390Z,23.53
2019-02-27T03:55:32.881Z,24.40
2019-02-27T03:58:48.559Z,24.33
2019-02-27T04:02:18.596Z,22.70
2019-02-27T04:05:32.843Z,21.83
2019-02-27T04:08:55.175Z,22.87
2019-02-27T04:11:26.632Z,24.67
2019-02-27T04:14:02.989Z,24.20
2019-02-27T04:16:32.848Z,24.80
2019-02-27T04:19:05.105Z,23.77
2019-02-27T04:21:36.448Z,25.23
2019-02-27T04:24:07.625Z,25.53
2019-02-27T04:26:41.997Z,25.53
2019-02-27T04:29:11.615Z,24.47
2019-02-27T04:31:42.764Z,24.50
2019-02-27T04:34:14.001Z,25.00
2019-02-27T04:36:47.203Z,25.30
2019-02-27T04:39:18.122Z,24.70
2019-02-27T04:41:49.591Z,26.07
2019-02-27T04:44:22.120Z,25.47
2019-02-27T04:46:55.096Z,24.70
2019-02-27T04:49:26.175Z,25.27
2019-02-27T04:51:57.362Z,24.30
2019-02-27T04:54:28.572Z,25.37
2019-02-27T04:56:59.730Z,24.30
2019-02-27T04:59:31.076Z,24.83
2019-02-27T05:02:02.222Z,25.17
2019-02-27T05:04:35.284Z,25.23
2019-02-27T05:07:06.349Z,25.57
2019-02-27T05:09:37.611Z,24.83
2019-02-27T05:12:08.813Z,24.47
2019-02-27T05:14:40.056Z,25.00
2019-02-27T05:17:11.216Z,25.63
2019-02-27T05:19:42.447Z,25.67
2019-02-27T05:22:13.625Z,26.43
2019-02-27T05:24:44.811Z,25.17
2019-02-27T05:27:16.309Z,26.00
2019-02-27T05:29:47.369Z,25.30
2019-02-27T05:32:18.389Z,24.80
2019-02-27T05:34:49.930Z,26.20
2019-02-27T05:37:21.565Z,26.90
2019-02-27T05:39:52.611Z,25.70
2019-02-27T05:42:23.630Z,25.97
2019-02-27T05:44:55.881Z,24.67
2019-02-27T05:47:27.380Z,24.77
2019-02-27T05:50:00.469Z,26.03
2019-02-27T05:52:31.183Z,25.00
2019-02-27T05:55:06.125Z,25.13
2019-02-27T05:57:35.070Z,24.70
2019-02-27T06:00:08.589Z,25.50
2019-02-27T06:02:41.897Z,25.43
2019-02-27T06:05:12.861Z,25.47
2019-02-27T06:07:44.259Z,25.40
2019-02-27T06:10:19.747Z,24.73
2019-02-27T06:12:48.980Z,24.47
2019-02-27T06:15:20.320Z,25.33
2019-02-27T06:17:51.474Z,25.53
2019-02-27T06:20:22.603Z,25.17
2019-02-27T06:22:53.775Z,24.83
2019-02-27T06:25:25.039Z,26.03
2019-02-27T06:27:56.223Z,25.63
2019-02-27T06:30:27.913Z,25.97
2019-02-27T06:33:00.180Z,27.67
2019-02-27T06:35:34.247Z,26.83
2019-02-27T06:38:04.321Z,27.37
2019-02-27T06:40:35.557Z,26.47
2019-02-27T06:43:06.780Z,25.30
2019-02-27T06:45:38.166Z,27.53
2019-02-27T06:48:10.295Z,26.10
2019-02-27T06:50:41.646Z,26.27
2019-02-27T06:53:15.607Z,25.93
2019-02-27T06:55:45.604Z,27.53
2019-02-27T06:58:16.735Z,27.97
2019-02-27T07:00:48.010Z,25.57
2019-02-27T07:03:19.207Z,28.20
2019-02-27T07:05:50.451Z,27.97
2019-02-27T07:08:21.741Z,26.83
2019-02-27T07:10:57.344Z,25.97
2019-02-27T07:13:29.834Z,26.83
2019-02-27T07:15:59.715Z,26.77
2019-02-27T07:18:30.895Z,26.30
2019-02-27T07:21:02.126Z,27.17
2019-02-27T07:23:35.193Z,27.53
2019-02-27T07:26:06.172Z,27.23
2019-02-27T07:28:37.363Z,26.37
2019-02-27T07:31:08.528Z,26.90
2019-02-27T07:33:40.581Z,27.73
2019-02-27T07:36:12.396Z,25.63
2019-02-27T07:38:43.634Z,27.93
2019-02-27T07:41:17.547Z,26.60
2019-02-27T07:43:47.792Z,28.17
2019-02-27T07:46:22.154Z,25.97
2019-02-27T07:48:51.485Z,28.07
2019-02-27T07:51:23.299Z,26.10
2019-02-27T07:53:54.879Z,25.70
2019-02-27T07:56:25.896Z,25.63
2019-02-27T07:58:57.084Z,28.13
2019-02-27T08:01:28.207Z,26.33
2019-02-27T08:03:59.279Z,29.30
2019-02-27T08:06:30.369Z,27.67
2019-02-27T08:09:01.493Z,25.23
2019-02-27T08:11:32.524Z,28.80
2019-02-27T08:14:03.960Z,27.23
2019-02-27T08:16:36.934Z,28.03
2019-02-27T08:19:08.937Z,29.53
2019-02-27T08:21:40.387Z,28.77
2019-02-27T08:24:11.583Z,27.80
2019-02-27T08:26:42.790Z,30.30
2019-02-27T08:29:14.005Z,29.13
2019-02-27T08:31:45.238Z,26.93
2019-02-27T08:34:16.403Z,30.37
2019-02-27T08:36:47.591Z,28.10
2019-02-27T08:39:18.654Z,21.40
2019-02-27T08:41:49.862Z,27.83
2019-02-27T08:44:21.076Z,63.33
2019-02-27T08:46:52.310Z,29.97
2019-02-27T08:49:24.946Z,27.73
2019-02-27T08:51:56.333Z,28.77
2019-02-27T08:54:32.277Z,27.93
2019-02-27T08:57:00.469Z,27.53
2019-02-27T08:59:31.693Z,27.37
2019-02-27T09:02:02.873Z,28.57
2019-02-27T09:04:34.097Z,28.40
2019-02-27T09:07:05.361Z,26.90
2019-02-27T09:09:36.584Z,27.77
2019-02-27T09:12:07.731Z,26.87
2019-02-27T09:14:38.927Z,26.83
2019-02-27T09:17:10.214Z,26.80
2019-02-27T09:19:45.314Z,26.63
2019-02-27T09:22:15.139Z,26.83
2019-02-27T09:24:46.383Z,26.10
2019-02-27T09:27:17.562Z,27.60
2019-02-27T09:29:49.372Z,26.87
2019-02-27T09:32:20.701Z,25.37
2019-02-27T09:34:51.995Z,25.80
2019-02-27T09:37:23.159Z,25.40
2019-02-27T09:39:54.421Z,24.37
2019-02-27T09:42:25.582Z,24.00
2019-02-27T09:44:56.814Z,23.87
2019-02-27T09:47:28.108Z,20.97
2019-02-27T09:49:59.358Z,21.23
2019-02-27T09:52:30.767Z,21.70
2019-02-27T09:55:02.400Z,21.30
2019-02-27T09:57:35.334Z,21.93
2019-02-27T10:00:25.947Z,20.30
2019-02-27T10:02:58.082Z,20.87
2019-02-27T10:05:29.987Z,21.60
2019-02-27T10:08:01.457Z,21.37
2019-02-27T10:10:32.865Z,21.67
2019-02-27T10:13:05.437Z,19.83
2019-02-27T10:15:37.861Z,20.17
2019-02-27T10:18:11.074Z,20.20
2019-02-27T10:20:42.438Z,19.60
2019-02-27T10:23:13.654Z,20.30
2019-02-27T10:25:44.875Z,19.23
2019-02-27T10:28:16.239Z,18.83
2019-02-27T10:30:49.943Z,19.03
2019-02-27T10:33:25.838Z,19.93
2019-02-27T10:35:57.500Z,18.63
2019-02-27T10:38:28.769Z,19.43
2019-02-27T10:40:59.992Z,19.17
2019-02-27T10:43:33.202Z,19.60
2019-02-27T10:46:05.631Z,19.50
2019-02-27T10:48:41.842Z,19.47
2019-02-27T10:51:12.943Z,18.67
2019-02-27T10:53:44.084Z,19.87
2019-02-27T10:56:21.634Z,19.13
2019-02-27T10:58:54.049Z,20.00
2019-02-27T11:01:27.067Z,18.10
2019-02-27T11:04:00.520Z,19.30
2019-02-27T11:06:34.172Z,18.17
2019-02-27T11:09:15.792Z,18.00
2019-02-27T11:11:48.781Z,19.00
2019-02-27T11:14:19.847Z,17.53
2019-02-27T11:16:50.996Z,18.03
2019-02-27T11:19:22.049Z,18.80
2019-02-27T11:21:53.192Z,17.23
2019-02-27T11:24:24.815Z,16.23
2019-02-27T11:26:56.976Z,17.37
2019-02-27T11:29:28.273Z,17.13
2019-02-27T11:31:59.378Z,15.87
2019-02-27T11:34:30.450Z,15.97
2019-02-27T11:37:01.554Z,15.87
2019-02-27T11:39:32.922Z,15.03
2019-02-27T11:42:04.940Z,14.80
2019-02-27T11:44:36.033Z,14.10
2019-02-27T11:47:11.012Z,14.07
2019-02-27T11:49:39.840Z,13.70
2019-02-27T11:52:10.936Z,13.97
2019-02-27T11:54:43.183Z,13.93
2019-02-27T11:57:14.723Z,13.30
2019-02-27T11:59:46.885Z,12.93
2019-02-27T12:02:18.605Z,12.67
2019-02-27T12:04:53.480Z,12.43
2019-02-27T12:07:22.372Z,14.60
2019-02-27T12:09:53.436Z,13.73
2019-02-27T12:12:24.536Z,12.80
2019-02-27T12:14:55.590Z,12.77
2019-02-27T12:17:26.661Z,12.53
2019-02-27T12:19:57.717Z,11.03
2019-02-27T12:22:28.795Z,10.13
2019-02-27T12:24:59.866Z,9.10
2019-02-27T12:27:48.298Z,10.53
2019-02-27T12:30:04.036Z,10.43
2019-02-27T12:32:35.241Z,11.30
2019-02-27T12:35:08.245Z,11.33
2019-02-27T12:37:40.561Z,12.67
2019-02-27T12:40:14.951Z,11.00
2019-02-27T12:42:46.071Z,11.20
2019-02-27T12:45:19.926Z,10.60
2019-02-27T12:47:51.104Z,11.13
2019-02-27T12:50:27.049Z,10.93
2019-02-27T12:52:56.938Z,11.30
2019-02-27T12:55:29.103Z,11.20
2019-02-27T12:58:00.189Z,9.90
2019-02-27T13:00:31.610Z,11.53
2019-02-27T13:03:02.766Z,11.17
2019-02-27T13:05:35.012Z,10.53
2019-02-27T13:08:06.068Z,11.07
2019-02-27T13:10:37.141Z,11.10
2019-02-27T13:13:08.231Z,10.27
2019-02-27T13:15:41.148Z,10.57
2019-02-27T13:18:13.116Z,10.23
2019-02-27T13:20:45.674Z,8.83
2019-02-27T13:23:18.421Z,10.07
2019-02-27T13:25:49.483Z,9.10
2019-02-27T13:28:21.268Z,7.97
2019-02-27T13:30:52.280Z,8.07
2019-02-27T13:33:23.387Z,7.97
2019-02-27T13:35:59.327Z,7.63
2019-02-27T13:38:27.209Z,7.37
2019-02-27T13:40:58.263Z,8.53
2019-02-27T13:43:29.358Z,9.40
2019-02-27T13:46:00.422Z,9.27
2019-02-27T13:48:31.542Z,10.30
2019-02-27T13:51:02.739Z,8.97
2019-02-27T13:53:33.878Z,9.73
2019-02-27T13:56:04.939Z,10.27
2019-02-27T13:58:36.640Z,10.03
2019-02-27T14:01:12.000Z,37.40
2019-02-27T14:03:42.362Z,19.17
2019-02-27T14:06:13.534Z,53.07
2019-02-27T14:08:45.711Z,138.43
2019-02-27T14:11:17.231Z,9.97
2019-02-27T14:13:48.414Z,10.17
2019-02-27T14:16:19.632Z,10.40
2019-02-27T14:18:50.735Z,10.30
2019-02-27T14:21:21.992Z,10.05
2019-02-27T14:23:53.265Z,9.00
2019-02-27T14:26:24.368Z,10.55
2019-02-27T14:28:55.861Z,10.43
2019-02-27T14:31:28.866Z,10.27
2019-02-27T14:33:59.721Z,11.17
2019-02-27T14:36:30.899Z,10.27
2019-02-27T14:39:01.995Z,8.90
2019-02-27T14:41:33.050Z,9.67
2019-02-27T14:44:04.183Z,9.60
2019-02-27T14:46:35.236Z,10.03
2019-02-27T14:49:06.274Z,10.87
2019-02-27T14:51:37.336Z,10.77
2019-02-27T14:54:08.539Z,9.97
2019-02-27T14:56:41.712Z,10.23
2019-02-27T14:59:12.313Z,10.97
2019-02-27T15:01:43.374Z,10.03
2019-02-27T15:04:14.420Z,10.23
2019-02-27T15:06:45.488Z,10.40
2019-02-27T15:09:17.430Z,11.83
2019-02-27T15:11:49.448Z,9.97
2019-02-27T15:14:20.461Z,9.83
2019-02-27T15:16:51.561Z,10.67
2019-02-27T15:19:22.661Z,10.33
2019-02-27T15:21:53.773Z,10.40
2019-02-27T15:24:24.871Z,11.17
2019-02-27T15:26:56.026Z,11.80
2019-02-27T15:29:27.102Z,11.53
2019-02-27T15:31:58.171Z,11.27
2019-02-27T15:34:29.276Z,11.10
2019-02-27T15:37:00.978Z,11.48
2019-02-27T15:39:33.075Z,11.22
2019-02-27T15:42:08.740Z,10.23
2019-02-27T15:44:36.903Z,9.95
2019-02-27T15:47:07.987Z,10.38
2019-02-27T15:49:39.044Z,10.18
2019-02-27T15:52:10.149Z,10.28
2019-02-27T15:54:41.206Z,11.22
2019-02-27T15:57:14.947Z,10.00
2019-02-27T15:59:44.975Z,9.87
2019-02-27T16:02:16.080Z,10.70
2019-02-27T16:04:48.015Z,10.17
2019-02-27T16:07:20.164Z,10.47
2019-02-27T16:09:51.198Z,9.87
2019-02-27T16:12:25.348Z,10.40
2019-02-27T16:14:54.972Z,10.60
2019-02-27T16:17:26.031Z,10.90
2019-02-27T16:19:57.097Z,10.43
2019-02-27T16:22:30.229Z,11.13
2019-02-27T16:25:00.890Z,10.80
2019-02-27T16:27:32.157Z,10.77
2019-02-27T16:30:05.183Z,11.10
2019-02-27T16:32:36.293Z,11.07
2019-02-27T16:35:08.147Z,11.13
2019-02-27T16:37:39.416Z,10.93
2019-02-27T16:40:17.323Z,10.80
2019-02-27T16:42:45.218Z,9.40
2019-02-27T16:45:18.400Z,10.30
2019-02-27T16:47:49.527Z,10.93
2019-02-27T16:50:24.690Z,9.43
2019-02-27T16:52:55.658Z,10.60
2019-02-27T16:55:26.893Z,10.30
2019-02-27T16:57:58.427Z,10.13
2019-02-27T17:00:30.692Z,10.63
2019-02-27T17:03:01.993Z,10.50
2019-02-27T17:05:34.084Z,10.83
2019-02-27T17:08:05.434Z,10.97
2019-02-27T17:10:36.515Z,11.20
2019-02-27T17:13:07.717Z,10.50
2019-02-27T17:15:40.049Z,10.10
2019-02-27T17:18:12.751Z,10.03
2019-02-27T17:20:46.511Z,10.60
2019-02-27T17:23:16.819Z,11.77
2019-02-27T17:25:47.876Z,10.50
2019-02-27T17:28:19.055Z,10.77
2019-02-27T17:30:50.140Z,10.70
2019-02-27T17:33:21.242Z,11.90
2019-02-27T17:35:53.171Z,11.33
2019-02-27T17:38:27.417Z,12.03
2019-02-27T17:40:59.519Z,12.70
2019-02-27T17:43:30.742Z,11.73
2019-02-27T17:46:01.900Z,11.93
2019-02-27T17:48:33.008Z,12.37
2019-02-27T17:51:06.484Z,11.77
2019-02-27T17:53:36.815Z,11.93
2019-02-27T17:56:07.885Z,12.03
2019-02-27T17:58:38.995Z,16.77
2019-02-27T18:01:13.846Z,17.33
2019-02-27T18:03:45.259Z,13.60
2019-02-27T18:06:16.322Z,14.10
2019-02-27T18:08:51.716Z,14.50
2019-02-27T18:11:20.188Z,15.60
2019-02-27T18:13:51.391Z,17.67
2019-02-27T18:16:24.520Z,17.83
2019-02-27T18:18:55.159Z,16.63
2019-02-27T18:21:27.731Z,17.13
2019-02-27T18:23:59.524Z,16.50
2019-02-27T18:26:30.728Z,17.07
2019-02-27T18:29:04.284Z,16.30
2019-02-27T18:31:34.507Z,16.83
2019-02-27T18:34:05.735Z,16.80
2019-02-27T18:36:42.749Z,16.60
2019-02-27T18:39:10.225Z,16.43
2019-02-27T18:41:41.389Z,16.43
2019-02-27T18:44:12.469Z,15.60
2019-02-27T18:46:43.563Z,16.43
2019-02-27T18:49:15.251Z,15.60
2019-02-27T18:51:47.461Z,15.00
2019-02-27T18:54:21.587Z,15.80
2019-02-27T18:56:52.576Z,14.90
2019-02-27T18:59:23.898Z,14.67
2019-02-27T19:01:56.556Z,14.30
2019-02-27T19:04:35.062Z,13.63
2019-02-27T19:07:03.728Z,13.50
2019-02-27T19:09:35.825Z,12.00
2019-02-27T19:12:07.364Z,12.27
2019-02-27T19:14:39.587Z,12.60
2019-02-27T19:17:10.630Z,12.37
2019-02-27T19:19:41.853Z,12.90
2019-02-27T19:22:13.138Z,14.57
2019-02-27T19:24:44.285Z,14.63
2019-02-27T19:27:18.117Z,15.03
2019-02-27T19:29:48.315Z,14.63
2019-02-27T19:32:19.566Z,14.47
2019-02-27T19:34:52.163Z,14.10
2019-02-27T19:37:23.308Z,14.47
2019-02-27T19:39:56.331Z,14.43
2019-02-27T19:42:27.291Z,14.63
2019-02-27T19:45:03.797Z,14.87
2019-02-27T19:47:31.161Z,15.03
2019-02-27T19:50:03.279Z,13.47
2019-02-27T19:52:34.457Z,14.17
2019-02-27T19:55:05.738Z,13.83
2019-02-27T19:57:39.285Z,14.10
2019-02-27T20:00:12.810Z,13.63
2019-02-27T20:02:43.932Z,14.03
2019-02-27T20:05:16.439Z,14.07
2019-02-27T20:07:50.534Z,14.93
2019-02-27T20:10:29.049Z,14.27
2019-02-27T20:12:58.458Z,14.50
2019-02-27T20:15:30.601Z,14.90
2019-02-27T20:18:07.674Z,14.47
2019-02-27T20:20:40.926Z,14.47
2019-02-27T20:23:10.647Z,14.03
2019-02-27T20:25:44.185Z,13.50
2019-02-27T20:28:16.553Z,15.33
2019-02-27T20:30:49.536Z,15.33
2019-02-27T20:33:23.445Z,15.10
2019-02-27T20:35:56.975Z,15.40
2019-02-27T20:38:28.296Z,15.30
2019-02-27T20:40:59.332Z,15.30
2019-02-27T20:43:30.454Z,15.30
2019-02-27T20:46:01.582Z,15.47
2019-02-27T20:48:36.139Z,15.50
2019-02-27T20:51:06.858Z,15.77
2019-02-27T20:53:38.116Z,15.93
2019-02-27T20:56:09.187Z,16.23
2019-02-27T20:58:43.648Z,17.87
2019-02-27T21:01:17.811Z,16.83
2019-02-27T21:03:51.510Z,16.07
2019-02-27T21:06:26.057Z,15.67
2019-02-27T21:08:57.639Z,15.83
2019-02-27T21:11:30.468Z,43.33
2019-02-27T21:14:02.610Z,17.87
2019-02-27T21:16:34.598Z,21.87
2019-02-27T21:19:05.712Z,17.00
2019-02-27T21:21:37.019Z,19.30
2019-02-27T21:24:08.273Z,18.10
2019-02-27T21:26:40.299Z,18.17
2019-02-27T21:29:12.392Z,18.20
2019-02-27T21:31:44.683Z,16.77
2019-02-27T21:34:19.225Z,17.63
2019-02-27T21:36:50.547Z,19.27
2019-02-27T21:39:25.190Z,18.17
2019-02-27T21:41:55.636Z,16.57
2019-02-27T21:44:31.242Z,17.50
2019-02-27T21:47:02.359Z,17.00
2019-02-27T21:49:33.834Z,17.63
2019-02-27T21:52:04.948Z,16.53
2019-02-27T21:54:39.223Z,17.20
2019-02-27T21:57:09.034Z,17.53
2019-02-27T21:59:42.618Z,17.03
2019-02-27T22:02:15.199Z,17.47
2019-02-27T22:04:47.198Z,18.07
2019-02-27T22:07:18.541Z,18.20
2019-02-27T22:09:51.007Z,16.70
2019-02-27T22:12:22.135Z,18.23
2019-02-27T22:14:53.318Z,17.00
2019-02-27T22:17:24.980Z,17.80
2019-02-27T22:19:56.940Z,17.93
2019-02-27T22:22:28.304Z,17.77
2019-02-27T22:24:59.514Z,18.53
2019-02-27T22:27:30.704Z,17.93
2019-02-27T22:30:01.890Z,18.57
2019-02-27T22:32:33.558Z,18.27
2019-02-27T22:35:05.519Z,18.07
2019-02-27T22:37:37.218Z,17.20
2019-02-27T22:40:11.264Z,18.07
2019-02-27T22:42:45.510Z,18.10
2019-02-27T22:45:19.112Z,18.87
2019-02-27T22:47:53.877Z,17.37
2019-02-27T22:50:25.739Z,18.17
2019-02-27T22:52:56.889Z,18.00
2019-02-27T22:55:28.654Z,18.53
2019-02-27T22:58:00.004Z,18.43
2019-02-27T23:01:02.215Z,19.63
2019-02-27T23:03:38.337Z,19.30
2019-02-27T23:06:12.240Z,18.50
2019-02-27T23:08:44.967Z,19.00
2019-02-27T23:11:16.392Z,18.83
2019-02-27T23:13:51.350Z,19.30
2019-02-27T23:16:23.721Z,19.33
2019-02-27T23:18:56.506Z,19.90
2019-02-27T23:21:29.742Z,18.40
2019-02-27T23:24:01.327Z,19.93
2019-02-27T23:26:32.865Z,20.83
2019-02-27T23:29:23.447Z,19.57
2019-02-27T23:31:55.860Z,20.07
2019-02-27T23:34:27.019Z,19.70
2019-02-27T23:36:58.128Z,20.80
2019-02-27T23:39:29.452Z,20.77
2019-02-27T23:42:00.498Z,19.57
2019-02-27T23:44:31.612Z,21.00
2019-02-27T23:47:02.725Z,20.87
2019-02-27T23:49:33.838Z,20.97
2019-02-27T23:52:05.106Z,20.43
2019-02-27T23:54:36.605Z,20.20
2019-02-27T23:57:08.909Z,22.27
2019-02-27T23:59:43.572Z,22.37
